sensor_id;sensor_type;location;lat;lon;timestamp;P1;durP1;ratioP1;P2;durP2;ratioP2
76208;SDS011;64990;51.698;-0.292;2023-04-08T00:01:12;33.60;;;12.52;;
76208;SDS011;64990;51.698;-0.292;2023-04-08T00:03:38;22.95;;;12.95;;
76208;SDS011;64990;51.698;-0.292;2023-04-08T00:06:04;40.75;;;15.15;;
76208;SDS011;64990;51.698;-0.292;2023-04-08T00:08:30;29.40;;;14.77;;
76208;SDS011;64990;51.698;-0.292;2023-04-08T00:10:57;39.00;;;16.13;;
76208;SDS011;64990;51.698;-0.292;2023-04-08T00:13:23;39.33;;;14.68;;
76208;SDS011;64990;51.698;-0.292;2023-04-08T00:15:49;31.45;;;15.90;;
76208;SDS011;64990;51.698;-0.292;2023-04-08T00:18:15;34.13;;;16.23;;
76208;SDS011;64990;51.698;-0.292;2023-04-08T00:20:42;47.83;;;18.05;;
76208;SDS011;64990;51.698;-0.292;2023-04-08T00:23:08;47.13;;;19.05;;
76208;SDS011;64990;51.698;-0.292;2023-04-08T00:25:34;45.47;;;19.98;;
76208;SDS011;64990;51.698;-0.292;2023-04-08T00:28:00;51.47;;;20.88;;
76208;SDS011;64990;51.698;-0.292;2023-04-08T00:30:26;41.22;;;19.88;;
76208;SDS011;64990;51.698;-0.292;2023-04-08T00:32:53;58.42;;;22.70;;
76208;SDS011;64990;51.698;-0.292;2023-04-08T00:35:19;57.53;;;22.17;;
76208;SDS011;64990;51.698;-0.292;2023-04-08T00:37:45;49.83;;;20.55;;
76208;SDS011;64990;51.698;-0.292;2023-04-08T00:40:12;52.60;;;21.40;;
76208;SDS011;64990;51.698;-0.292;2023-04-08T00:42:38;63.10;;;26.80;;
76208;SDS011;64990;51.698;-0.292;2023-04-08T00:45:04;58.30;;;28.73;;
76208;SDS011;64990;51.698;-0.292;2023-04-08T00:47:30;71.85;;;29.70;;
76208;SDS011;64990;51.698;-0.292;2023-04-08T00:49:56;66.95;;;26.60;;
76208;SDS011;64990;51.698;-0.292;2023-04-08T00:52:22;54.60;;;26.58;;
76208;SDS011;64990;51.698;-0.292;2023-04-08T00:54:48;63.58;;;27.98;;
76208;SDS011;64990;51.698;-0.292;2023-04-08T00:57:14;58.15;;;26.23;;
76208;SDS011;64990;51.698;-0.292;2023-04-08T00:59:40;67.43;;;26.08;;
76208;SDS011;64990;51.698;-0.292;2023-04-08T01:02:14;57.88;;;23.58;;
76208;SDS011;64990;51.698;-0.292;2023-04-08T01:04:43;62.47;;;28.75;;
76208;SDS011;64990;51.698;-0.292;2023-04-08T01:07:14;58.55;;;26.10;;
76208;SDS011;64990;51.698;-0.292;2023-04-08T01:09:50;46.30;;;20.70;;
76208;SDS011;64990;51.698;-0.292;2023-04-08T01:12:19;54.17;;;22.25;;
76208;SDS011;64990;51.698;-0.292;2023-04-08T01:14:47;46.97;;;21.30;;
76208;SDS011;64990;51.698;-0.292;2023-04-08T01:17:15;53.63;;;21.55;;
76208;SDS011;64990;51.698;-0.292;2023-04-08T01:19:44;48.90;;;23.23;;
76208;SDS011;64990;51.698;-0.292;2023-04-08T01:24:38;53.05;;;24.23;;
76208;SDS011;64990;51.698;-0.292;2023-04-08T01:27:05;54.17;;;23.30;;
76208;SDS011;64990;51.698;-0.292;2023-04-08T01:29:32;54.83;;;23.10;;
76208;SDS011;64990;51.698;-0.292;2023-04-08T01:31:58;71.60;;;31.55;;
76208;SDS011;64990;51.698;-0.292;2023-04-08T01:34:26;62.75;;;26.85;;
76208;SDS011;64990;51.698;-0.292;2023-04-08T01:36:53;62.70;;;25.33;;
76208;SDS011;64990;51.698;-0.292;2023-04-08T01:39:20;66.82;;;26.58;;
76208;SDS011;64990;51.698;-0.292;2023-04-08T01:41:46;69.25;;;27.77;;
76208;SDS011;64990;51.698;-0.292;2023-04-08T01:44:13;59.35;;;27.75;;
76208;SDS011;64990;51.698;-0.292;2023-04-08T01:46:40;55.65;;;22.58;;
76208;SDS011;64990;51.698;-0.292;2023-04-08T01:49:07;55.05;;;23.60;;
76208;SDS011;64990;51.698;-0.292;2023-04-08T01:51:33;72.22;;;23.40;;
76208;SDS011;64990;51.698;-0.292;2023-04-08T01:54:00;54.00;;;23.17;;
76208;SDS011;64990;51.698;-0.292;2023-04-08T01:56:27;62.70;;;25.17;;
76208;SDS011;64990;51.698;-0.292;2023-04-08T01:58:54;59.38;;;24.10;;
76208;SDS011;64990;51.698;-0.292;2023-04-08T02:01:21;51.58;;;23.38;;
76208;SDS011;64990;51.698;-0.292;2023-04-08T02:03:48;51.80;;;23.33;;
76208;SDS011;64990;51.698;-0.292;2023-04-08T02:06:16;53.63;;;23.77;;
76208;SDS011;64990;51.698;-0.292;2023-04-08T02:08:42;57.20;;;23.08;;
76208;SDS011;64990;51.698;-0.292;2023-04-08T02:11:08;58.22;;;24.17;;
76208;SDS011;64990;51.698;-0.292;2023-04-08T02:13:34;51.38;;;24.13;;
76208;SDS011;64990;51.698;-0.292;2023-04-08T02:16:05;64.03;;;26.55;;
76208;SDS011;64990;51.698;-0.292;2023-04-08T02:18:35;53.25;;;25.45;;
76208;SDS011;64990;51.698;-0.292;2023-04-08T02:21:09;47.67;;;22.35;;
76208;SDS011;64990;51.698;-0.292;2023-04-08T02:23:37;58.65;;;23.90;;
76208;SDS011;64990;51.698;-0.292;2023-04-08T02:26:03;54.88;;;24.08;;
76208;SDS011;64990;51.698;-0.292;2023-04-08T02:28:32;60.65;;;26.15;;
76208;SDS011;64990;51.698;-0.292;2023-04-08T02:30:59;58.97;;;24.25;;
76208;SDS011;64990;51.698;-0.292;2023-04-08T02:33:26;61.03;;;27.88;;
76208;SDS011;64990;51.698;-0.292;2023-04-08T02:35:52;66.93;;;26.80;;
76208;SDS011;64990;51.698;-0.292;2023-04-08T02:38:19;73.15;;;27.08;;
76208;SDS011;64990;51.698;-0.292;2023-04-08T02:40:47;61.97;;;24.45;;
76208;SDS011;64990;51.698;-0.292;2023-04-08T02:43:14;80.00;;;30.15;;
76208;SDS011;64990;51.698;-0.292;2023-04-08T02:45:41;70.35;;;29.33;;
76208;SDS011;64990;51.698;-0.292;2023-04-08T02:48:07;75.72;;;28.50;;
76208;SDS011;64990;51.698;-0.292;2023-04-08T02:50:33;74.95;;;28.48;;
76208;SDS011;64990;51.698;-0.292;2023-04-08T02:52:59;54.03;;;23.95;;
76208;SDS011;64990;51.698;-0.292;2023-04-08T02:55:25;56.25;;;27.08;;
76208;SDS011;64990;51.698;-0.292;2023-04-08T02:57:51;59.58;;;24.70;;
76208;SDS011;64990;51.698;-0.292;2023-04-08T03:00:17;65.30;;;25.75;;
76208;SDS011;64990;51.698;-0.292;2023-04-08T03:02:43;142.25;;;30.50;;
76208;SDS011;64990;51.698;-0.292;2023-04-08T03:05:09;79.10;;;30.60;;
76208;SDS011;64990;51.698;-0.292;2023-04-08T03:07:36;66.55;;;27.20;;
76208;SDS011;64990;51.698;-0.292;2023-04-08T03:10:04;62.90;;;28.00;;
76208;SDS011;64990;51.698;-0.292;2023-04-08T03:12:31;64.20;;;23.98;;
76208;SDS011;64990;51.698;-0.292;2023-04-08T03:14:57;56.25;;;24.27;;
76208;SDS011;64990;51.698;-0.292;2023-04-08T03:17:23;65.95;;;27.20;;
76208;SDS011;64990;51.698;-0.292;2023-04-08T03:19:49;59.20;;;25.00;;
76208;SDS011;64990;51.698;-0.292;2023-04-08T03:22:15;67.07;;;27.75;;
76208;SDS011;64990;51.698;-0.292;2023-04-08T03:24:41;65.47;;;27.23;;
76208;SDS011;64990;51.698;-0.292;2023-04-08T03:27:07;179.98;;;33.83;;
76208;SDS011;64990;51.698;-0.292;2023-04-08T03:29:33;410.88;;;51.65;;
76208;SDS011;64990;51.698;-0.292;2023-04-08T03:31:59;459.38;;;46.33;;
76208;SDS011;64990;51.698;-0.292;2023-04-08T03:34:25;310.67;;;38.67;;
76208;SDS011;64990;51.698;-0.292;2023-04-08T03:36:51;335.05;;;39.75;;
76208;SDS011;64990;51.698;-0.292;2023-04-08T03:39:17;374.67;;;42.60;;
76208;SDS011;64990;51.698;-0.292;2023-04-08T03:41:44;483.75;;;49.40;;
76208;SDS011;64990;51.698;-0.292;2023-04-08T03:44:09;317.05;;;36.70;;
76208;SDS011;64990;51.698;-0.292;2023-04-08T03:46:35;103.10;;;27.40;;
76208;SDS011;64990;51.698;-0.292;2023-04-08T03:49:01;81.60;;;26.08;;
76208;SDS011;64990;51.698;-0.292;2023-04-08T03:51:27;212.55;;;32.30;;
76208;SDS011;64990;51.698;-0.292;2023-04-08T03:53:53;179.00;;;29.55;;
76208;SDS011;64990;51.698;-0.292;2023-04-08T03:56:19;104.03;;;24.38;;
76208;SDS011;64990;51.698;-0.292;2023-04-08T03:58:45;407.05;;;35.78;;
76208;SDS011;64990;51.698;-0.292;2023-04-08T04:01:11;426.45;;;39.75;;
76208;SDS011;64990;51.698;-0.292;2023-04-08T04:03:37;239.48;;;34.33;;
76208;SDS011;64990;51.698;-0.292;2023-04-08T04:06:03;262.40;;;37.75;;
76208;SDS011;64990;51.698;-0.292;2023-04-08T04:08:30;93.45;;;29.38;;
76208;SDS011;64990;51.698;-0.292;2023-04-08T04:10:57;203.68;;;36.65;;
76208;SDS011;64990;51.698;-0.292;2023-04-08T04:13:23;114.38;;;26.60;;
76208;SDS011;64990;51.698;-0.292;2023-04-08T04:15:49;77.60;;;28.02;;
76208;SDS011;64990;51.698;-0.292;2023-04-08T04:18:15;393.45;;;51.53;;
76208;SDS011;64990;51.698;-0.292;2023-04-08T04:20:41;291.35;;;37.80;;
76208;SDS011;64990;51.698;-0.292;2023-04-08T04:23:07;355.08;;;37.42;;
76208;SDS011;64990;51.698;-0.292;2023-04-08T04:25:34;265.65;;;35.42;;
76208;SDS011;64990;51.698;-0.292;2023-04-08T04:28:00;216.63;;;31.95;;
76208;SDS011;64990;51.698;-0.292;2023-04-08T04:30:27;492.58;;;46.50;;
76208;SDS011;64990;51.698;-0.292;2023-04-08T04:32:53;235.93;;;35.20;;
76208;SDS011;64990;51.698;-0.292;2023-04-08T04:35:20;455.15;;;46.55;;
76208;SDS011;64990;51.698;-0.292;2023-04-08T04:37:46;622.78;;;58.47;;
76208;SDS011;64990;51.698;-0.292;2023-04-08T04:40:14;368.92;;;42.42;;
76208;SDS011;64990;51.698;-0.292;2023-04-08T04:42:40;522.25;;;49.20;;
76208;SDS011;64990;51.698;-0.292;2023-04-08T04:45:06;586.78;;;59.90;;
76208;SDS011;64990;51.698;-0.292;2023-04-08T04:47:33;569.55;;;53.80;;
76208;SDS011;64990;51.698;-0.292;2023-04-08T04:49:59;434.58;;;47.72;;
76208;SDS011;64990;51.698;-0.292;2023-04-08T04:52:25;487.40;;;47.50;;
76208;SDS011;64990;51.698;-0.292;2023-04-08T04:54:51;380.55;;;45.58;;
76208;SDS011;64990;51.698;-0.292;2023-04-08T04:57:17;457.67;;;47.72;;
76208;SDS011;64990;51.698;-0.292;2023-04-08T04:59:43;299.38;;;38.28;;
76208;SDS011;64990;51.698;-0.292;2023-04-08T05:02:09;211.88;;;34.65;;
76208;SDS011;64990;51.698;-0.292;2023-04-08T05:04:35;97.07;;;25.70;;
76208;SDS011;64990;51.698;-0.292;2023-04-08T05:07:01;71.95;;;21.77;;
76208;SDS011;64990;51.698;-0.292;2023-04-08T05:09:28;154.00;;;26.85;;
76208;SDS011;64990;51.698;-0.292;2023-04-08T05:11:54;101.50;;;24.95;;
76208;SDS011;64990;51.698;-0.292;2023-04-08T05:14:20;44.58;;;20.75;;
76208;SDS011;64990;51.698;-0.292;2023-04-08T05:16:46;55.53;;;19.85;;
76208;SDS011;64990;51.698;-0.292;2023-04-08T05:19:12;42.40;;;16.98;;
76208;SDS011;64990;51.698;-0.292;2023-04-08T05:21:38;33.55;;;17.48;;
76208;SDS011;64990;51.698;-0.292;2023-04-08T05:24:05;30.85;;;16.35;;
76208;SDS011;64990;51.698;-0.292;2023-04-08T05:26:31;35.13;;;16.45;;
76208;SDS011;64990;51.698;-0.292;2023-04-08T05:28:57;33.60;;;13.82;;
76208;SDS011;64990;51.698;-0.292;2023-04-08T05:31:23;25.55;;;14.73;;
76208;SDS011;64990;51.698;-0.292;2023-04-08T05:33:49;25.42;;;14.27;;
76208;SDS011;64990;51.698;-0.292;2023-04-08T05:36:15;28.65;;;15.15;;
76208;SDS011;64990;51.698;-0.292;2023-04-08T05:38:41;25.48;;;13.35;;
76208;SDS011;64990;51.698;-0.292;2023-04-08T05:41:08;58.20;;;19.45;;
76208;SDS011;64990;51.698;-0.292;2023-04-08T05:43:34;276.70;;;22.15;;
76208;SDS011;64990;51.698;-0.292;2023-04-08T05:46:07;184.63;;;25.90;;
76208;SDS011;64990;51.698;-0.292;2023-04-08T05:48:33;125.30;;;22.83;;
76208;SDS011;64990;51.698;-0.292;2023-04-08T05:50:59;82.15;;;17.50;;
76208;SDS011;64990;51.698;-0.292;2023-04-08T05:53:25;56.83;;;16.83;;
76208;SDS011;64990;51.698;-0.292;2023-04-08T05:55:51;96.57;;;19.38;;
76208;SDS011;64990;51.698;-0.292;2023-04-08T05:58:20;85.88;;;21.40;;
76208;SDS011;64990;51.698;-0.292;2023-04-08T06:00:46;168.85;;;23.38;;
76208;SDS011;64990;51.698;-0.292;2023-04-08T06:03:12;117.25;;;19.50;;
76208;SDS011;64990;51.698;-0.292;2023-04-08T06:05:38;219.55;;;25.75;;
76208;SDS011;64990;51.698;-0.292;2023-04-08T06:08:04;262.80;;;27.08;;
76208;SDS011;64990;51.698;-0.292;2023-04-08T06:10:30;429.63;;;35.38;;
76208;SDS011;64990;51.698;-0.292;2023-04-08T06:12:56;360.27;;;30.30;;
76208;SDS011;64990;51.698;-0.292;2023-04-08T06:15:22;216.80;;;25.13;;
76208;SDS011;64990;51.698;-0.292;2023-04-08T06:17:48;183.73;;;29.05;;
76208;SDS011;64990;51.698;-0.292;2023-04-08T06:20:14;284.55;;;29.63;;
76208;SDS011;64990;51.698;-0.292;2023-04-08T06:22:40;421.40;;;35.60;;
76208;SDS011;64990;51.698;-0.292;2023-04-08T06:25:06;535.10;;;38.20;;
76208;SDS011;64990;51.698;-0.292;2023-04-08T06:27:32;450.65;;;40.88;;
76208;SDS011;64990;51.698;-0.292;2023-04-08T06:29:58;333.35;;;32.42;;
76208;SDS011;64990;51.698;-0.292;2023-04-08T06:32:24;255.98;;;34.45;;
76208;SDS011;64990;51.698;-0.292;2023-04-08T06:34:51;238.10;;;29.35;;
76208;SDS011;64990;51.698;-0.292;2023-04-08T06:37:16;389.80;;;37.75;;
76208;SDS011;64990;51.698;-0.292;2023-04-08T06:39:42;223.45;;;22.58;;
76208;SDS011;64990;51.698;-0.292;2023-04-08T06:42:08;199.75;;;26.90;;
76208;SDS011;64990;51.698;-0.292;2023-04-08T06:44:35;185.95;;;22.05;;
76208;SDS011;64990;51.698;-0.292;2023-04-08T06:47:01;324.40;;;29.75;;
76208;SDS011;64990;51.698;-0.292;2023-04-08T06:49:27;304.35;;;26.73;;
76208;SDS011;64990;51.698;-0.292;2023-04-08T06:51:54;134.50;;;20.55;;
76208;SDS011;64990;51.698;-0.292;2023-04-08T06:54:20;176.50;;;23.95;;
76208;SDS011;64990;51.698;-0.292;2023-04-08T06:56:46;214.52;;;22.80;;
76208;SDS011;64990;51.698;-0.292;2023-04-08T06:59:12;170.45;;;22.02;;
76208;SDS011;64990;51.698;-0.292;2023-04-08T07:01:38;361.88;;;32.92;;
76208;SDS011;64990;51.698;-0.292;2023-04-08T07:04:04;94.03;;;19.08;;
76208;SDS011;64990;51.698;-0.292;2023-04-08T07:06:30;293.48;;;29.17;;
76208;SDS011;64990;51.698;-0.292;2023-04-08T07:08:56;228.90;;;23.80;;
76208;SDS011;64990;51.698;-0.292;2023-04-08T07:11:22;328.15;;;28.98;;
76208;SDS011;64990;51.698;-0.292;2023-04-08T07:13:48;365.65;;;29.13;;
76208;SDS011;64990;51.698;-0.292;2023-04-08T07:16:14;375.20;;;33.90;;
76208;SDS011;64990;51.698;-0.292;2023-04-08T07:18:40;334.35;;;32.90;;
76208;SDS011;64990;51.698;-0.292;2023-04-08T07:21:07;259.67;;;28.77;;
76208;SDS011;64990;51.698;-0.292;2023-04-08T07:23:33;323.90;;;34.13;;
76208;SDS011;64990;51.698;-0.292;2023-04-08T07:26:03;158.93;;;20.85;;
76208;SDS011;64990;51.698;-0.292;2023-04-08T07:28:29;235.45;;;25.23;;
76208;SDS011;64990;51.698;-0.292;2023-04-08T07:30:55;259.40;;;23.58;;
76208;SDS011;64990;51.698;-0.292;2023-04-08T07:33:21;263.60;;;26.20;;
76208;SDS011;64990;51.698;-0.292;2023-04-08T07:35:48;222.90;;;24.83;;
76208;SDS011;64990;51.698;-0.292;2023-04-08T07:38:14;187.38;;;24.05;;
76208;SDS011;64990;51.698;-0.292;2023-04-08T07:40:40;133.43;;;20.88;;
76208;SDS011;64990;51.698;-0.292;2023-04-08T07:43:06;116.78;;;20.90;;
76208;SDS011;64990;51.698;-0.292;2023-04-08T07:45:33;207.73;;;23.30;;
76208;SDS011;64990;51.698;-0.292;2023-04-08T07:47:59;149.38;;;24.48;;
76208;SDS011;64990;51.698;-0.292;2023-04-08T07:50:25;148.82;;;18.30;;
76208;SDS011;64990;51.698;-0.292;2023-04-08T07:52:51;146.60;;;21.30;;
76208;SDS011;64990;51.698;-0.292;2023-04-08T07:55:17;202.77;;;23.77;;
76208;SDS011;64990;51.698;-0.292;2023-04-08T07:57:43;172.20;;;20.85;;
76208;SDS011;64990;51.698;-0.292;2023-04-08T08:00:10;133.95;;;21.52;;
76208;SDS011;64990;51.698;-0.292;2023-04-08T08:02:36;179.80;;;21.98;;
76208;SDS011;64990;51.698;-0.292;2023-04-08T08:05:02;199.02;;;26.10;;
76208;SDS011;64990;51.698;-0.292;2023-04-08T08:07:28;108.85;;;20.83;;
76208;SDS011;64990;51.698;-0.292;2023-04-08T08:09:54;106.13;;;21.60;;
76208;SDS011;64990;51.698;-0.292;2023-04-08T08:12:20;133.18;;;21.10;;
76208;SDS011;64990;51.698;-0.292;2023-04-08T08:14:46;183.90;;;23.30;;
76208;SDS011;64990;51.698;-0.292;2023-04-08T08:17:12;102.55;;;18.60;;
76208;SDS011;64990;51.698;-0.292;2023-04-08T08:19:38;256.70;;;33.28;;
76208;SDS011;64990;51.698;-0.292;2023-04-08T08:22:04;132.80;;;23.20;;
76208;SDS011;64990;51.698;-0.292;2023-04-08T08:24:30;106.15;;;19.00;;
76208;SDS011;64990;51.698;-0.292;2023-04-08T08:26:56;192.05;;;26.33;;
76208;SDS011;64990;51.698;-0.292;2023-04-08T08:29:22;88.00;;;20.63;;
76208;SDS011;64990;51.698;-0.292;2023-04-08T08:31:48;69.65;;;19.85;;
76208;SDS011;64990;51.698;-0.292;2023-04-08T08:34:14;91.07;;;22.35;;
76208;SDS011;64990;51.698;-0.292;2023-04-08T08:36:40;109.15;;;25.25;;
76208;SDS011;64990;51.698;-0.292;2023-04-08T08:39:06;75.90;;;20.55;;
76208;SDS011;64990;51.698;-0.292;2023-04-08T08:41:33;53.92;;;19.35;;
76208;SDS011;64990;51.698;-0.292;2023-04-08T08:44:01;50.25;;;20.90;;
76208;SDS011;64990;51.698;-0.292;2023-04-08T08:46:27;44.17;;;19.73;;
76208;SDS011;64990;51.698;-0.292;2023-04-08T08:48:53;36.92;;;17.88;;
76208;SDS011;64990;51.698;-0.292;2023-04-08T08:51:20;37.75;;;18.70;;
76208;SDS011;64990;51.698;-0.292;2023-04-08T08:53:46;34.50;;;18.02;;
76208;SDS011;64990;51.698;-0.292;2023-04-08T08:56:12;36.40;;;17.92;;
76208;SDS011;64990;51.698;-0.292;2023-04-08T08:58:38;36.65;;;19.42;;
76208;SDS011;64990;51.698;-0.292;2023-04-08T09:01:46;39.75;;;19.77;;
76208;SDS011;64990;51.698;-0.292;2023-04-08T09:04:12;35.05;;;17.65;;
76208;SDS011;64990;51.698;-0.292;2023-04-08T09:06:40;33.30;;;16.30;;
76208;SDS011;64990;51.698;-0.292;2023-04-08T09:09:07;28.77;;;15.48;;
76208;SDS011;64990;51.698;-0.292;2023-04-08T09:11:37;35.15;;;18.17;;
76208;SDS011;64990;51.698;-0.292;2023-04-08T09:14:03;34.75;;;17.33;;
76208;SDS011;64990;51.698;-0.292;2023-04-08T09:16:31;32.22;;;17.52;;
76208;SDS011;64990;51.698;-0.292;2023-04-08T09:19:06;31.02;;;16.40;;
76208;SDS011;64990;51.698;-0.292;2023-04-08T09:21:33;27.60;;;15.45;;
76208;SDS011;64990;51.698;-0.292;2023-04-08T09:23:59;28.50;;;14.90;;
76208;SDS011;64990;51.698;-0.292;2023-04-08T09:26:25;22.13;;;13.60;;
76208;SDS011;64990;51.698;-0.292;2023-04-08T09:31:30;23.70;;;12.57;;
76208;SDS011;64990;51.698;-0.292;2023-04-08T09:33:57;29.23;;;14.77;;
76208;SDS011;64990;51.698;-0.292;2023-04-08T09:36:24;23.45;;;12.38;;
76208;SDS011;64990;51.698;-0.292;2023-04-08T09:38:51;22.88;;;12.60;;
76208;SDS011;64990;51.698;-0.292;2023-04-08T09:41:18;29.50;;;13.77;;
76208;SDS011;64990;51.698;-0.292;2023-04-08T09:46:14;25.83;;;15.07;;
76208;SDS011;64990;51.698;-0.292;2023-04-08T09:48:45;26.42;;;13.43;;
76208;SDS011;64990;51.698;-0.292;2023-04-08T09:51:12;23.30;;;12.43;;
76208;SDS011;64990;51.698;-0.292;2023-04-08T09:53:42;24.50;;;10.50;;
76208;SDS011;64990;51.698;-0.292;2023-04-08T09:56:11;20.48;;;11.10;;
76208;SDS011;64990;51.698;-0.292;2023-04-08T09:58:40;22.55;;;10.82;;
76208;SDS011;64990;51.698;-0.292;2023-04-08T10:01:06;15.48;;;9.82;;
76208;SDS011;64990;51.698;-0.292;2023-04-08T10:03:36;17.98;;;9.82;;
76208;SDS011;64990;51.698;-0.292;2023-04-08T10:06:05;17.42;;;10.57;;
76208;SDS011;64990;51.698;-0.292;2023-04-08T10:08:32;20.83;;;7.60;;
76208;SDS011;64990;51.698;-0.292;2023-04-08T10:10:58;14.05;;;6.55;;
76208;SDS011;64990;51.698;-0.292;2023-04-08T10:13:24;20.30;;;7.78;;
76208;SDS011;64990;51.698;-0.292;2023-04-08T10:16:16;9.15;;;5.60;;
76208;SDS011;64990;51.698;-0.292;2023-04-08T10:18:39;14.32;;;6.05;;
76208;SDS011;64990;51.698;-0.292;2023-04-08T10:21:29;8.60;;;5.03;;
76208;SDS011;64990;51.698;-0.292;2023-04-08T10:23:56;9.30;;;5.63;;
76208;SDS011;64990;51.698;-0.292;2023-04-08T10:31:43;11.80;;;4.78;;
76208;SDS011;64990;51.698;-0.292;2023-04-08T10:36:42;14.02;;;5.68;;
76208;SDS011;64990;51.698;-0.292;2023-04-08T10:39:08;14.30;;;4.75;;
76208;SDS011;64990;51.698;-0.292;2023-04-08T10:41:34;12.82;;;5.70;;
76208;SDS011;64990;51.698;-0.292;2023-04-08T10:44:14;7.15;;;4.05;;
76208;SDS011;64990;51.698;-0.292;2023-04-08T10:46:40;15.45;;;3.55;;
76208;SDS011;64990;51.698;-0.292;2023-04-08T10:49:07;6.68;;;3.47;;
76208;SDS011;64990;51.698;-0.292;2023-04-08T10:51:33;8.23;;;4.40;;
76208;SDS011;64990;51.698;-0.292;2023-04-08T10:54:06;11.98;;;4.68;;
76208;SDS011;64990;51.698;-0.292;2023-04-08T10:56:32;5.80;;;3.35;;
76208;SDS011;64990;51.698;-0.292;2023-04-08T10:58:58;5.82;;;2.63;;
76208;SDS011;64990;51.698;-0.292;2023-04-08T11:01:24;5.13;;;2.45;;
76208;SDS011;64990;51.698;-0.292;2023-04-08T11:03:51;5.25;;;2.92;;
76208;SDS011;64990;51.698;-0.292;2023-04-08T11:06:17;7.35;;;2.58;;
76208;SDS011;64990;51.698;-0.292;2023-04-08T11:08:43;14.75;;;2.63;;
76208;SDS011;64990;51.698;-0.292;2023-04-08T11:11:10;6.18;;;2.47;;
76208;SDS011;64990;51.698;-0.292;2023-04-08T11:13:37;8.25;;;4.43;;
76208;SDS011;64990;51.698;-0.292;2023-04-08T11:16:04;7.15;;;4.20;;
76208;SDS011;64990;51.698;-0.292;2023-04-08T11:18:33;7.32;;;2.97;;
76208;SDS011;64990;51.698;-0.292;2023-04-08T11:20:59;15.82;;;4.95;;
76208;SDS011;64990;51.698;-0.292;2023-04-08T11:23:25;21.67;;;2.72;;
76208;SDS011;64990;51.698;-0.292;2023-04-08T11:25:51;6.95;;;2.92;;
76208;SDS011;64990;51.698;-0.292;2023-04-08T11:28:18;30.20;;;10.40;;
76208;SDS011;64990;51.698;-0.292;2023-04-08T11:30:44;10.25;;;4.07;;
76208;SDS011;64990;51.698;-0.292;2023-04-08T11:33:13;35.90;;;8.05;;
76208;SDS011;64990;51.698;-0.292;2023-04-08T11:35:40;9.00;;;3.75;;
76208;SDS011;64990;51.698;-0.292;2023-04-08T11:38:09;5.28;;;3.47;;
76208;SDS011;64990;51.698;-0.292;2023-04-08T11:40:36;10.68;;;4.28;;
76208;SDS011;64990;51.698;-0.292;2023-04-08T11:43:08;6.55;;;3.55;;
76208;SDS011;64990;51.698;-0.292;2023-04-08T11:45:38;8.90;;;3.78;;
76208;SDS011;64990;51.698;-0.292;2023-04-08T11:48:10;11.82;;;5.50;;
76208;SDS011;64990;51.698;-0.292;2023-04-08T11:50:37;9.00;;;3.70;;
76208;SDS011;64990;51.698;-0.292;2023-04-08T11:53:14;15.88;;;6.15;;
76208;SDS011;64990;51.698;-0.292;2023-04-08T11:55:41;6.63;;;4.03;;
76208;SDS011;64990;51.698;-0.292;2023-04-08T11:58:07;5.70;;;3.30;;
76208;SDS011;64990;51.698;-0.292;2023-04-08T12:00:33;5.32;;;3.45;;
76208;SDS011;64990;51.698;-0.292;2023-04-08T12:02:59;11.93;;;4.15;;
76208;SDS011;64990;51.698;-0.292;2023-04-08T12:05:25;9.63;;;5.20;;
76208;SDS011;64990;51.698;-0.292;2023-04-08T12:07:51;12.40;;;5.57;;
76208;SDS011;64990;51.698;-0.292;2023-04-08T12:10:17;8.50;;;4.00;;
76208;SDS011;64990;51.698;-0.292;2023-04-08T12:12:43;6.47;;;5.30;;
76208;SDS011;64990;51.698;-0.292;2023-04-08T12:15:09;38.90;;;5.05;;
76208;SDS011;64990;51.698;-0.292;2023-04-08T12:17:36;11.88;;;5.18;;
76208;SDS011;64990;51.698;-0.292;2023-04-08T12:20:05;9.13;;;4.95;;
76208;SDS011;64990;51.698;-0.292;2023-04-08T12:22:31;15.38;;;4.22;;
76208;SDS011;64990;51.698;-0.292;2023-04-08T12:24:57;7.97;;;4.38;;
76208;SDS011;64990;51.698;-0.292;2023-04-08T12:27:23;8.18;;;3.92;;
76208;SDS011;64990;51.698;-0.292;2023-04-08T12:29:50;5.88;;;3.78;;
76208;SDS011;64990;51.698;-0.292;2023-04-08T12:32:17;6.22;;;3.72;;
76208;SDS011;64990;51.698;-0.292;2023-04-08T12:34:43;7.47;;;3.97;;
76208;SDS011;64990;51.698;-0.292;2023-04-08T12:37:09;8.05;;;4.50;;
76208;SDS011;64990;51.698;-0.292;2023-04-08T12:39:35;7.18;;;4.50;;
76208;SDS011;64990;51.698;-0.292;2023-04-08T12:42:02;6.63;;;2.92;;
76208;SDS011;64990;51.698;-0.292;2023-04-08T12:44:28;8.23;;;4.40;;
76208;SDS011;64990;51.698;-0.292;2023-04-08T12:46:54;9.13;;;3.10;;
76208;SDS011;64990;51.698;-0.292;2023-04-08T12:49:22;7.05;;;4.30;;
76208;SDS011;64990;51.698;-0.292;2023-04-08T12:51:48;7.45;;;3.85;;
76208;SDS011;64990;51.698;-0.292;2023-04-08T12:54:14;11.88;;;4.47;;
76208;SDS011;64990;51.698;-0.292;2023-04-08T12:56:40;10.18;;;3.70;;
76208;SDS011;64990;51.698;-0.292;2023-04-08T12:59:10;7.65;;;3.53;;
76208;SDS011;64990;51.698;-0.292;2023-04-08T13:01:38;8.02;;;3.08;;
76208;SDS011;64990;51.698;-0.292;2023-04-08T13:04:05;7.95;;;4.10;;
76208;SDS011;64990;51.698;-0.292;2023-04-08T13:06:31;7.90;;;3.80;;
76208;SDS011;64990;51.698;-0.292;2023-04-08T13:08:57;8.52;;;4.30;;
76208;SDS011;64990;51.698;-0.292;2023-04-08T13:11:23;9.98;;;3.55;;
76208;SDS011;64990;51.698;-0.292;2023-04-08T13:13:49;7.93;;;4.32;;
76208;SDS011;64990;51.698;-0.292;2023-04-08T13:16:16;10.48;;;3.35;;
76208;SDS011;64990;51.698;-0.292;2023-04-08T13:18:42;10.48;;;4.28;;
76208;SDS011;64990;51.698;-0.292;2023-04-08T13:21:08;10.05;;;3.92;;
76208;SDS011;64990;51.698;-0.292;2023-04-08T13:23:34;11.88;;;3.40;;
76208;SDS011;64990;51.698;-0.292;2023-04-08T13:26:00;5.47;;;3.85;;
76208;SDS011;64990;51.698;-0.292;2023-04-08T13:28:27;8.38;;;3.25;;
76208;SDS011;64990;51.698;-0.292;2023-04-08T13:30:53;6.40;;;4.00;;
76208;SDS011;64990;51.698;-0.292;2023-04-08T13:33:20;5.72;;;3.65;;
76208;SDS011;64990;51.698;-0.292;2023-04-08T13:35:46;6.60;;;4.28;;
76208;SDS011;64990;51.698;-0.292;2023-04-08T13:38:12;4.70;;;3.33;;
76208;SDS011;64990;51.698;-0.292;2023-04-08T13:40:38;11.55;;;3.88;;
76208;SDS011;64990;51.698;-0.292;2023-04-08T13:43:04;7.70;;;2.95;;
76208;SDS011;64990;51.698;-0.292;2023-04-08T13:45:30;17.42;;;4.35;;
76208;SDS011;64990;51.698;-0.292;2023-04-08T13:47:56;4.05;;;3.33;;
76208;SDS011;64990;51.698;-0.292;2023-04-08T13:50:23;9.20;;;2.90;;
76208;SDS011;64990;51.698;-0.292;2023-04-08T13:52:50;10.48;;;4.10;;
76208;SDS011;64990;51.698;-0.292;2023-04-08T13:55:16;11.45;;;3.10;;
76208;SDS011;64990;51.698;-0.292;2023-04-08T13:57:42;4.65;;;2.55;;
76208;SDS011;64990;51.698;-0.292;2023-04-08T14:00:08;5.05;;;2.63;;
76208;SDS011;64990;51.698;-0.292;2023-04-08T14:02:34;8.13;;;3.58;;
76208;SDS011;64990;51.698;-0.292;2023-04-08T14:05:01;4.95;;;2.40;;
76208;SDS011;64990;51.698;-0.292;2023-04-08T14:07:27;3.03;;;2.53;;
76208;SDS011;64990;51.698;-0.292;2023-04-08T14:09:53;5.22;;;3.00;;
76208;SDS011;64990;51.698;-0.292;2023-04-08T14:12:19;5.95;;;2.80;;
76208;SDS011;64990;51.698;-0.292;2023-04-08T14:14:45;10.43;;;3.80;;
76208;SDS011;64990;51.698;-0.292;2023-04-08T14:17:11;6.80;;;3.05;;
76208;SDS011;64990;51.698;-0.292;2023-04-08T14:19:38;9.82;;;3.13;;
76208;SDS011;64990;51.698;-0.292;2023-04-08T14:22:04;4.47;;;2.17;;
76208;SDS011;64990;51.698;-0.292;2023-04-08T14:24:30;7.15;;;2.33;;